Time;durP1;ratioP1;P1;durP2;ratioP2;P2;SDS_P1;SDS_P2;PMS_P1;PMS_P2;Temp;Humidity;BMP_temperature;BMP_pressure;BME280_temperature;BME280_humidity;BME280_pressure;Samples;Min_cycle;Max_cycle;Signal;HPM_P1;HPM_P2
2023/03/06 00:01:01;;;;;;;2.08;1.40;;;;;;;1.38;100.00;100741.63;5056335;28;20044;-81
2023/03/06 00:03:28;;;;;;;3.08;1.40;;;;;;;1.38;100.00;100744.22;5052223;28;20044;-81
2023/03/06 00:05:57;;;;;;;1.98;1.05;;;;;;;1.35;100.00;100733.72;5059097;28;20048;-80
2023/03/06 00:08:27;;;;;;;1.48;1.20;;;;;;;1.33;100.00;100735.34;5068445;28;21219;-81
2023/03/06 00:10:55;;;;;;;1.23;1.05;;;;;;;1.30;100.00;100737.81;5056743;28;20040;-81
2023/03/06 00:13:25;;;;;;;1.20;1.10;;;;;;;1.30;100.00;100737.81;5076463;28;20044;-82
2023/03/06 00:15:52;;;;;;;3.13;1.15;;;;;;;1.32;100.00;100736.16;5076282;28;20040;-81
2023/03/06 00:18:20;;;;;;;2.10;1.30;;;;;;;1.31;100.00;100731.81;5045309;28;20055;-82
2023/03/06 00:20:47;;;;;;;2.83;1.50;;;;;;;1.28;100.00;100735.16;5068855;28;20405;-81
2023/03/06 00:23:15;;;;;;;1.60;1.50;;;;;;;1.26;100.00;100726.44;5043029;28;20040;-83
2023/03/06 00:25:44;;;;;;;7.47;1.85;;;;;;;1.27;100.00;100723.03;5064050;28;20203;-81
2023/03/06 00:28:13;;;;;;;2.20;1.63;;;;;;;1.27;100.00;100723.03;5048826;28;20051;-82
2023/03/06 00:30:41;;;;;;;1.85;1.20;;;;;;;1.28;100.00;100724.78;5084273;28;20043;-81
2023/03/06 00:33:09;;;;;;;1.88;1.50;;;;;;;1.27;100.00;100717.84;5065408;28;20043;-81
2023/03/06 00:35:38;;;;;;;3.35;1.52;;;;;;;1.30;100.00;100722.25;5066066;28;20389;-82
2023/03/06 00:38:06;;;;;;;3.17;1.20;;;;;;;1.30;100.00;100720.53;5041944;28;20416;-82
2023/03/06 00:40:35;;;;;;;1.30;1.20;;;;;;;1.31;100.00;100718.84;5052583;28;20048;-82
2023/03/06 00:43:02;;;;;;;3.65;1.25;;;;;;;1.32;100.00;100724.09;5008705;28;20059;-82
2023/03/06 00:45:29;;;;;;;1.95;1.10;;;;;;;1.30;100.00;100719.66;5035580;28;20489;-81
2023/03/06 00:47:57;;;;;;;2.47;1.40;;;;;;;1.31;100.00;100718.84;5063629;28;20047;-81
2023/03/06 00:50:24;;;;;;;3.78;1.88;;;;;;;1.34;100.00;100711.16;5097758;28;20047;-82
2023/03/06 00:52:52;;;;;;;2.25;1.65;;;;;;;1.35;100.00;100712.94;5059754;28;20552;-81
2023/03/06 00:55:20;;;;;;;1.58;1.35;;;;;;;1.36;100.00;100710.41;5046986;28;20052;-81
2023/03/06 00:57:48;;;;;;;1.75;1.23;;;;;;;1.38;100.00;100697.50;5025648;28;20065;-81
2023/03/06 01:00:16;;;;;;;2.50;1.30;;;;;;;1.34;100.00;100706.88;5074406;28;20448;-81
2023/03/06 01:02:43;;;;;;;2.25;1.70;;;;;;;1.31;100.00;100703.25;5076935;28;20535;-81
2023/03/06 01:05:13;;;;;;;2.00;1.15;;;;;;;1.31;100.00;100700.66;5062304;28;20079;-82
2023/03/06 01:07:40;;;;;;;1.17;1.08;;;;;;;1.32;100.00;100700.72;5052429;28;20052;-82
2023/03/06 01:10:09;;;;;;;1.45;1.20;;;;;;;1.34;100.00;100698.16;5049154;28;20048;-81
2023/03/06 01:12:36;;;;;;;1.35;1.25;;;;;;;1.35;100.00;100699.97;5040330;28;20036;-81
2023/03/06 01:15:05;;;;;;;1.48;1.00;;;;;;;1.35;100.00;100707.75;5053695;28;20054;-81
2023/03/06 01:17:34;;;;;;;3.45;1.45;;;;;;;1.35;100.00;100694.75;5057840;28;20048;-82
2023/03/06 01:20:02;;;;;;;2.63;1.10;;;;;;;1.35;100.00;100695.63;5052714;28;20114;-81
2023/03/06 01:22:30;;;;;;;1.10;1.10;;;;;;;1.35;100.00;100699.97;5062751;28;20043;-81
2023/03/06 01:24:58;;;;;;;1.20;1.10;;;;;;;1.35;100.00;100695.63;5059180;28;20056;-82
2023/03/06 01:27:26;;;;;;;1.60;1.45;;;;;;;1.30;100.00;100693.69;5031621;28;20044;-81
2023/03/06 01:29:53;;;;;;;1.60;1.50;;;;;;;1.22;100.00;100690.81;5065530;28;20048;-81
2023/03/06 01:32:20;;;;;;;1.45;1.38;;;;;;;1.21;100.00;100691.66;5061868;28;20051;-82
2023/03/06 01:34:48;;;;;;;1.27;1.20;;;;;;;1.20;100.00;100681.19;5043928;28;20040;-81
2023/03/06 01:37:16;;;;;;;2.53;1.30;;;;;;;1.16;100.00;100685.38;5069932;28;20052;-82
2023/03/06 01:39:43;;;;;;;1.20;1.10;;;;;;;1.14;100.00;100689.63;5077089;28;20448;-81
2023/03/06 01:42:11;;;;;;;1.27;1.08;;;;;;;1.12;100.00;100684.38;5066708;28;20077;-82
2023/03/06 01:45:04;;;;;;;1.20;1.10;;;;;;;1.13;100.00;100682.66;5073159;28;20062;-82
2023/03/06 01:47:34;;;;;;;1.95;1.60;;;;;;;1.13;100.00;100678.34;5084824;28;20048;-81
2023/03/06 01:50:03;;;;;;;1.00;1.00;;;;;;;1.13;100.00;100678.34;5045041;28;20059;-80
2023/03/06 01:52:36;;;;;;;0.90;0.90;;;;;;;1.12;100.00;100671.41;5087334;28;20057;-81
2023/03/06 01:55:28;;;;;;;1.00;1.00;;;;;;;1.13;100.00;100669.69;5053141;28;20045;-82
2023/03/06 01:57:59;;;;;;;1.65;1.10;;;;;;;1.12;100.00;100665.34;5061439;28;20056;-81
2023/03/06 02:00:29;;;;;;;1.10;1.00;;;;;;;1.09;100.00;100658.28;5026662;28;20040;-82
2023/03/06 02:03:07;;;;;;;1.20;1.10;;;;;;;1.07;100.00;100648.69;5053246;28;20051;-82
2023/03/06 02:05:39;;;;;;;1.10;1.10;;;;;;;1.07;100.00;100646.09;5073648;28;20048;-82
2023/03/06 02:08:10;;;;;;;2.45;1.20;;;;;;;1.07;100.00;100640.91;5061048;28;20275;-83
2023/03/06 02:11:13;;;;;;;1.60;1.23;;;;;;;1.08;100.00;100647.88;5073460;28;20049;-82
2023/03/06 02:13:42;;;;;;;1.80;1.15;;;;;;;1.08;100.00;100643.56;5055005;28;20032;-82
2023/03/06 02:16:11;;;;;;;2.08;1.30;;;;;;;1.08;100.00;100628.00;5041188;28;20049;-81
2023/03/06 02:18:40;;;;;;;1.40;1.30;;;;;;;1.08;100.00;100634.91;5071285;28;20115;-82
2023/03/06 02:21:12;;;;;;;1.27;1.20;;;;;;;1.08;100.00;100634.91;5047505;28;20077;-82
2023/03/06 02:23:55;;;;;;;3.90;1.27;;;;;;;1.10;100.00;100641.03;5089125;28;20048;-82
2023/03/06 02:26:26;;;;;;;2.83;1.38;;;;;;;1.09;100.00;100632.34;5058625;28;20053;-82
2023/03/06 02:28:56;;;;;;;;;;;;;;;1.10;100.00;100630.66;5050027;28;20057;-81
2023/03/06 02:31:28;;;;;;;2.45;1.45;;;;;;;1.11;100.00;100632.41;5044417;28;19927;-82
2023/03/06 02:34:18;;;;;;;3.95;1.58;;;;;;;1.11;100.00;100622.91;5105825;28;20044;-82
2023/03/06 02:36:52;;;;;;;2.60;1.40;;;;;;;1.09;100.00;100623.69;5044627;28;20049;-82
2023/03/06 02:39:24;;;;;;;4.43;1.90;;;;;;;1.10;100.00;100617.69;5052908;28;20512;-82
2023/03/06 02:41:52;;;;;;;2.92;1.80;;;;;;;1.08;100.00;100612.44;5061976;28;20052;-81
2023/03/06 02:44:23;;;;;;;3.63;2.30;;;;;;;1.09;100.00;100616.78;5063382;28;20382;-82
2023/03/06 02:46:50;;;;;;;2.65;2.20;;;;;;;1.08;100.00;100609.84;5014313;28;20489;-81
2023/03/06 02:49:17;;;;;;;3.92;2.28;;;;;;;1.08;100.00;100602.03;5057143;28;20040;-82
2023/03/06 02:51:45;;;;;;;3.33;2.05;;;;;;;1.08;100.00;100603.75;5110290;28;20044;-81
2023/03/06 02:54:12;;;;;;;5.13;2.47;;;;;;;1.07;100.00;100610.63;5071184;28;20121;-82
2023/03/06 02:56:41;;;;;;;5.38;2.75;;;;;;;1.05;100.00;100604.50;5063174;28;20515;-82
2023/03/06 02:59:09;;;;;;;4.65;2.40;;;;;;;1.04;100.00;100597.56;5051049;28;20059;-81
2023/03/06 03:01:37;;;;;;;3.88;2.35;;;;;;;1.06;100.00;100601.09;5048321;28;20055;-82
2023/03/06 03:04:05;;;;;;;2.72;2.05;;;;;;;1.04;100.00;100601.84;5060008;28;20578;-81
2023/03/06 03:06:32;;;;;;;2.30;2.10;;;;;;;1.02;100.00;100591.44;5076579;28;20048;-81
2023/03/06 03:09:00;;;;;;;4.07;1.88;;;;;;;1.02;100.00;100600.91;5066168;28;20052;-81
2023/03/06 03:11:28;;;;;;;4.07;2.13;;;;;;;1.02;100.00;100595.72;5062415;28;20052;-81
2023/03/06 03:13:55;;;;;;;4.68;2.22;;;;;;;1.00;100.00;100590.47;5063768;28;20051;-81
2023/03/06 03:16:25;;;;;;;3.38;1.90;;;;;;;0.99;100.00;100593.03;5039327;28;20044;-81
2023/03/06 03:18:57;;;;;;;3.17;2.17;;;;;;;0.96;100.00;100597.28;5084503;28;20036;-81
2023/03/06 03:21:26;;;;;;;2.47;2.10;;;;;;;0.93;100.00;100596.28;5091633;28;20033;-82
2023/03/06 03:23:54;;;;;;;2.38;1.80;;;;;;;0.92;100.00;100599.69;5053493;28;20040;-82
2023/03/06 03:26:25;;;;;;;2.10;1.88;;;;;;;0.90;100.00;100597.03;5069711;28;20070;-82
2023/03/06 03:29:09;;;;;;;2.33;1.90;;;;;;;0.90;100.00;100588.38;5072209;28;20048;-82
2023/03/06 03:31:37;;;;;;;2.05;1.95;;;;;;;0.86;100.00;100595.16;5034528;28;20084;-81
2023/03/06 03:34:04;;;;;;;2.28;1.95;;;;;;;0.85;100.00;100595.09;5075645;28;20154;-82
2023/03/06 03:36:35;;;;;;;3.50;2.55;;;;;;;0.80;100.00;100594.03;5077717;28;20048;-81
2023/03/06 03:39:03;;;;;;;2.20;2.00;;;;;;;0.75;100.00;100592.13;5038369;28;20741;-82
2023/03/06 03:41:32;;;;;;;5.00;2.30;;;;;;;0.74;100.00;100587.78;5046975;28;20052;-81
2023/03/06 03:44:02;;;;;;;2.28;2.03;;;;;;;0.74;100.00;100581.72;5057065;28;20040;-81
2023/03/06 03:46:29;;;;;;;2.88;2.22;;;;;;;0.76;100.00;100582.66;5059876;28;20074;-82
2023/03/06 03:48:57;;;;;;;2.83;2.08;;;;;;;0.76;100.00;100577.47;5036632;28;20048;-81
2023/03/06 03:51:26;;;;;;;1.98;1.60;;;;;;;0.77;100.00;100587.88;5075424;28;20059;-81
2023/03/06 03:53:56;;;;;;;2.42;2.00;;;;;;;0.76;100.00;100575.75;5072455;28;20052;-81
2023/03/06 03:56:28;;;;;;;2.70;2.00;;;;;;;0.73;100.00;100575.63;5063840;28;20059;-81
2023/03/06 03:59:03;;;;;;;3.47;2.25;;;;;;;0.70;100.00;100579.81;5057549;28;20143;-82
2023/03/06 04:01:37;;;;;;;2.45;2.08;;;;;;;0.67;100.00;100571.94;5058319;28;20049;-82
2023/03/06 04:04:07;;;;;;;3.88;2.15;;;;;;;0.66;100.00;100577.94;5018190;28;20529;-82
2023/03/06 04:06:35;;;;;;;2.47;2.05;;;;;;;0.67;100.00;100579.72;5072680;28;20048;-82
2023/03/06 04:09:04;;;;;;;2.42;1.70;;;;;;;0.68;100.00;100584.06;5074799;28;20043;-81
2023/03/06 04:11:32;;;;;;;1.85;1.75;;;;;;;0.70;100.00;100580.72;5052348;28;20048;-81
2023/03/06 04:14:00;;;;;;;2.17;1.90;;;;;;;0.73;100.00;100578.22;5085368;28;20044;-82
2023/03/06 04:16:30;;;;;;;2.00;1.90;;;;;;;0.77;100.00;100571.44;5065418;28;20052;-82
2023/03/06 04:18:58;;;;;;;4.18;1.83;;;;;;;0.81;100.00;100582.81;5044601;28;20040;-81
2023/03/06 04:21:28;;;;;;;4.45;2.00;;;;;;;0.82;100.00;100576.81;5072513;28;20052;-81
2023/03/06 04:23:55;;;;;;;2.92;1.98;;;;;;;0.82;100.00;100582.88;5053792;28;20048;-82
2023/03/06 04:26:23;;;;;;;2.45;1.85;;;;;;;0.80;100.00;100578.47;5061627;28;20059;-81
2023/03/06 04:28:51;;;;;;;2.35;2.15;;;;;;;0.78;100.00;100579.28;5055957;28;20063;-81
2023/03/06 04:31:20;;;;;;;5.18;2.50;;;;;;;0.77;100.00;100579.22;5059123;28;20824;-81
2023/03/06 04:33:48;;;;;;;2.65;2.13;;;;;;;0.75;100.00;100575.69;5063996;28;20071;-81
2023/03/06 04:36:28;;;;;;;2.75;2.30;;;;;;;0.75;100.00;100578.28;5034041;28;20564;-81
2023/03/06 04:39:00;;;;;;;2.10;1.95;;;;;;;0.73;100.00;100569.56;5086752;28;20063;-81
2023/03/06 04:41:27;;;;;;;2.00;1.70;;;;;;;0.72;100.00;100570.41;5044108;28;20085;-82
2023/03/06 04:43:55;;;;;;;5.68;2.05;;;;;;;0.70;100.00;100572.94;5087284;28;20067;-81
2023/03/06 04:46:22;;;;;;;2.40;2.20;;;;;;;0.70;100.00;100566.84;5073602;28;20036;-82
2023/03/06 04:48:49;;;;;;;4.07;2.42;;;;;;;0.67;100.00;100569.34;5074895;28;20052;-81
2023/03/06 04:51:17;;;;;;;3.28;2.22;;;;;;;0.65;100.00;100561.50;5028584;28;20055;-82
2023/03/06 04:53:44;;;;;;;3.53;2.35;;;;;;;0.66;100.00;100552.00;5071514;28;20048;-81
2023/03/06 04:56:11;;;;;;;3.20;2.70;;;;;;;0.66;100.00;100554.59;5047911;28;20055;-82
2023/03/06 04:58:39;;;;;;;3.85;2.30;;;;;;;0.64;100.00;100554.53;5073150;28;20405;-82
2023/03/06 05:01:06;;;;;;;3.28;2.28;;;;;;;0.62;100.00;100547.53;5051445;28;20556;-81
2023/03/06 05:03:33;;;;;;;2.83;2.35;;;;;;;0.60;100.00;100550.03;5055159;28;20489;-82
2023/03/06 05:06:01;;;;;;;2.85;2.30;;;;;;;0.58;100.00;100552.56;5034405;28;20052;-82
2023/03/06 05:08:29;;;;;;;5.53;2.30;;;;;;;0.58;100.00;100547.38;5071934;28;20052;-82
2023/03/06 05:10:59;;;;;;;3.65;2.80;;;;;;;0.58;100.00;100549.09;5049996;28;20048;-81
2023/03/06 05:13:27;;;;;;;4.70;2.80;;;;;;;0.56;100.00;100553.34;5069899;28;20052;-81
2023/03/06 05:15:59;;;;;;;7.68;3.05;;;;;;;0.53;100.00;100548.03;5058818;28;20051;-80
2023/03/06 05:18:27;;;;;;;6.40;2.55;;;;;;;0.51;100.00;100552.28;5076483;28;20122;-81
2023/03/06 05:20:58;;;;;;;3.00;2.60;;;;;;;0.47;100.00;100545.22;5034788;28;20059;-80
2023/03/06 05:23:26;;;;;;;3.15;2.85;;;;;;;0.46;100.00;100546.06;5050979;28;20044;-81
2023/03/06 05:25:54;;;;;;;3.90;3.30;;;;;;;0.45;100.00;100545.16;5082201;28;20051;-81
2023/03/06 05:28:22;;;;;;;5.60;3.20;;;;;;;0.48;100.00;100550.47;5064685;28;20052;-81
2023/03/06 05:30:49;;;;;;;5.15;3.42;;;;;;;0.47;100.00;100540.91;5091067;28;20062;-81
2023/03/06 05:33:16;;;;;;;5.82;3.20;;;;;;;0.48;100.00;100547.00;5073472;28;20527;-81
2023/03/06 05:35:46;;;;;;;4.65;2.95;;;;;;;0.44;100.00;100540.81;5068674;28;20051;-81
2023/03/06 05:38:14;;;;;;;7.00;2.42;;;;;;;0.42;100.00;100546.72;5028708;28;20051;-81
2023/03/06 05:40:43;;;;;;;4.25;2.55;;;;;;;0.37;100.00;100537.06;5073768;28;20055;-81
2023/03/06 05:43:11;;;;;;;5.10;2.90;;;;;;;0.35;100.00;100543.03;5045748;28;20052;-81
2023/03/06 05:45:39;;;;;;;5.97;2.72;;;;;;;0.33;100.00;100542.09;5064394;28;20078;-81
2023/03/06 05:48:07;;;;;;;4.03;2.67;;;;;;;0.29;100.00;100548.84;5084625;28;20051;-81
2023/03/06 05:50:35;;;;;;;3.28;2.58;;;;;;;0.27;100.00;100541.84;5056172;28;20056;-81
2023/03/06 05:53:02;;;;;;;3.92;2.78;;;;;;;0.23;100.00;100543.44;5027214;28;20048;-80
2023/03/06 05:55:30;;;;;;;6.03;2.75;;;;;;;0.20;100.00;100551.06;5048958;28;20755;-82
2023/03/06 05:57:57;;;;;;;3.83;2.60;;;;;;;0.19;100.00;100550.19;5059306;28;20048;-81
2023/03/06 06:00:24;;;;;;;4.43;2.78;;;;;;;0.17;100.00;100541.47;5044464;28;20416;-81
2023/03/06 06:02:52;;;;;;;4.60;2.55;;;;;;;0.20;100.00;100551.06;5060791;28;20055;-80
2023/03/06 06:05:20;;;;;;;2.88;2.38;;;;;;;0.22;100.00;100541.66;5058556;28;20077;-81
2023/03/06 06:07:47;;;;;;;4.40;2.47;;;;;;;0.21;100.00;100542.50;5045394;28;20114;-81
2023/03/06 06:10:14;;;;;;;3.05;2.50;;;;;;;0.22;100.00;100545.97;5076656;28;20044;-82
2023/03/06 06:12:42;;;;;;;5.85;3.05;;;;;;;0.23;100.00;100543.44;5080251;28;20048;-81
2023/03/06 06:15:09;;;;;;;3.85;2.70;;;;;;;0.24;100.00;100542.59;5070362;28;20213;-81
2023/03/06 06:17:37;;;;;;;5.53;2.90;;;;;;;0.23;100.00;100538.25;5073898;28;20048;-82
2023/03/06 06:20:05;;;;;;;4.50;2.90;;;;;;;0.25;100.00;100543.50;5049994;28;20075;-81
2023/03/06 06:22:35;;;;;;;6.22;2.42;;;;;;;0.23;100.00;100535.66;5052872;28;20052;-81
2023/03/06 06:25:04;;;;;;;2.95;2.67;;;;;;;0.21;100.00;100534.72;5029940;28;20044;-81
2023/03/06 06:27:31;;;;;;;3.58;2.90;;;;;;;0.21;100.00;100531.22;5099084;28;20040;-81
2023/03/06 06:29:59;;;;;;;4.70;2.90;;;;;;;0.17;100.00;100538.88;5049701;28;20049;-80
2023/03/06 06:32:26;;;;;;;3.88;2.70;;;;;;;0.16;100.00;100536.22;5069731;28;20048;-81
2023/03/06 06:34:54;;;;;;;4.05;2.60;;;;;;;0.14;100.00;100527.53;5082662;28;20043;-81
2023/03/06 06:37:21;;;;;;;3.60;2.47;;;;;;;0.14;100.00;100540.47;5053306;28;20052;-80
2023/03/06 06:39:49;;;;;;;5.60;2.80;;;;;;;0.13;100.00;100534.41;5043265;28;20079;-79
2023/03/06 06:42:16;;;;;;;5.72;2.83;;;;;;;0.14;100.00;100535.28;5033717;28;20048;-82
2023/03/06 06:45:04;;;;;;;8.25;3.20;;;;;;;0.15;100.00;100535.34;5069516;28;20047;-81
2023/03/06 06:47:33;;;;;;;6.20;2.70;;;;;;;0.14;100.00;100535.28;5050078;28;20045;-81
2023/03/06 06:50:00;;;;;;;7.70;3.05;;;;;;;0.14;100.00;100538.75;5059864;28;20044;-81
2023/03/06 06:52:28;;;;;;;3.13;2.60;;;;;;;0.15;100.00;100537.94;5046725;28;20048;-81
2023/03/06 06:54:55;;;;;;;4.30;2.63;;;;;;;0.17;100.00;100535.41;5060708;28;20044;-81
2023/03/06 06:57:24;;;;;;;4.85;3.25;;;;;;;0.20;100.00;100527.75;5056608;28;20523;-82
2023/03/06 06:59:51;;;;;;;5.30;2.90;;;;;;;0.22;100.00;100538.19;5071338;28;20063;-81
2023/03/06 07:02:21;;;;;;;10.02;3.40;;;;;;;0.28;100.00;100538.41;5061660;28;20064;-81
2023/03/06 07:04:49;;;;;;;5.40;3.03;;;;;;;0.32;100.00;100530.84;5078895;28;20047;-82
2023/03/06 07:07:33;;;;;;;4.20;2.92;;;;;;;0.49;100.00;100525.41;5058704;28;20051;-81
2023/03/06 07:10:02;;;;;;;;;;;;;;;0.72;100.00;100527.19;5050268;28;20048;-81
2023/03/06 07:12:31;;;;;;;7.28;3.05;;;;;;;0.79;100.00;100525.69;5043564;28;19928;-80
2023/03/06 07:14:59;;;;;;;5.55;3.45;;;;;;;0.75;100.00;100527.28;5096081;28;20050;-81
2023/03/06 07:17:26;;;;;;;9.85;3.47;;;;;;;0.70;100.00;100525.34;5078024;28;20043;-81
2023/03/06 07:19:54;;;;;;;5.18;3.42;;;;;;;0.65;100.00;100532.09;5053099;28;20075;-81
2023/03/06 07:22:22;;;;;;;4.68;3.08;;;;;;;0.61;100.00;100538.00;5074333;28;20044;-81
2023/03/06 07:24:49;;;;;;;5.93;3.45;;;;;;;0.57;100.00;100536.97;5079802;28;20024;-81
2023/03/06 07:27:17;;;;;;;5.28;2.97;;;;;;;0.57;100.00;100539.56;5046795;28;20044;-81
2023/03/06 07:29:44;;;;;;;2.97;2.72;;;;;;;0.53;100.00;100537.66;5055152;28;20049;-81
2023/03/06 07:32:12;;;;;;;5.90;3.40;;;;;;;0.51;100.00;100544.50;5061488;28;20064;-82
2023/03/06 07:34:39;;;;;;;8.40;2.90;;;;;;;0.50;100.00;100545.34;5062577;28;20040;-83
2023/03/06 07:37:09;;;;;;;3.10;2.38;;;;;;;0.50;100.00;100543.63;5043334;28;20056;-82
2023/03/06 07:39:36;;;;;;;4.60;2.97;;;;;;;0.49;100.00;100552.25;5050014;28;20059;-79
2023/03/06 07:42:04;;;;;;;7.45;3.30;;;;;;;0.51;100.00;100552.28;5046146;28;20044;-80
2023/03/06 07:44:35;;;;;;;7.38;3.78;;;;;;;0.53;100.00;100548.03;5071598;28;20044;-81
2023/03/06 07:47:04;;;;;;;7.38;3.90;;;;;;;0.58;100.00;100552.56;5083180;28;20059;-80
2023/03/06 07:49:34;;;;;;;10.60;4.57;;;;;;;0.64;100.00;100551.94;5038339;28;20056;-80
2023/03/06 07:52:01;;;;;;;7.18;4.22;;;;;;;0.74;100.00;100556.66;5073034;28;20048;-82
2023/03/06 07:54:31;;;;;;;7.15;5.78;;;;;;;0.87;100.00;100558.03;5060459;28;20983;-82
2023/03/06 07:57:09;;;;;;;6.03;4.10;;;;;;;1.03;100.00;100554.28;5045437;28;20048;-82
2023/03/06 07:59:37;;;;;;;5.45;3.60;;;;;;;1.24;100.00;100548.97;5058489;28;20037;-82
2023/03/06 08:02:04;;;;;;;8.27;5.95;;;;;;;1.46;100.00;100550.63;5066353;28;20060;-82
2023/03/06 08:04:33;;;;;;;5.18;3.28;;;;;;;1.83;100.00;100546.69;5030559;28;20041;-82
2023/03/06 08:07:00;;;;;;;4.85;2.95;;;;;;;2.26;100.00;100544.63;5056283;28;20049;-82
2023/03/06 08:09:28;;;;;;;5.13;2.75;;;;;;;2.68;100.00;100544.19;5077024;28;20050;-83
2023/03/06 08:11:56;;;;;;;4.88;2.90;;;;;;;3.02;100.00;100542.59;5052010;28;20044;-82
2023/03/06 08:14:24;;;;;;;3.17;2.65;;;;;;;3.38;100.00;100544.47;5024847;28;20701;-82
2023/03/06 08:16:54;;;;;;;2.83;2.30;;;;;;;3.76;100.00;100542.88;5044384;28;20048;-82
2023/03/06 08:19:22;;;;;;;4.68;2.65;;;;;;;4.02;100.00;100543.53;5060330;28;20044;-82
2023/03/06 08:21:49;;;;;;;2.65;2.10;;;;;;;4.26;100.00;100539.78;5076815;28;20449;-82
2023/03/06 08:24:17;;;;;;;3.63;2.28;;;;;;;4.35;100.00;100546.91;5051548;28;20053;-82
2023/03/06 08:26:45;;;;;;;4.13;2.20;;;;;;;4.27;100.00;100539.81;5074714;28;20040;-80
2023/03/06 08:29:14;;;;;;;2.60;2.05;;;;;;;4.16;100.00;100549.09;5041536;28;20052;-81
2023/03/06 08:31:44;;;;;;;2.85;2.53;;;;;;;4.04;100.00;100544.44;5072869;28;20051;-82
2023/03/06 08:34:14;;;;;;;3.45;2.25;;;;;;;3.80;100.00;100551.66;5051761;28;20051;-81
2023/03/06 08:36:42;;;;;;;3.15;2.00;;;;;;;3.57;100.00;100556.25;5058050;28;20064;-82
2023/03/06 08:39:12;;;;;;;2.72;2.25;;;;;;;3.44;100.00;100550.72;5071116;28;20056;-82
2023/03/06 08:41:43;;;;;;;3.95;2.63;;;;;;;3.31;100.00;100551.25;5074433;28;20056;-82
2023/03/06 08:44:11;;;;;;;2.67;2.28;;;;;;;3.13;100.00;100560.25;5033358;28;20498;-80
2023/03/06 08:46:40;;;;;;;3.53;2.58;;;;;;;2.92;100.00;100565.75;5062994;28;20060;-83
2023/03/06 08:49:08;;;;;;;2.40;2.20;;;;;;;2.69;100.00;100565.06;5043856;28;20072;-83
2023/03/06 08:51:36;;;;;;;4.80;2.50;;;;;;;2.54;100.00;100564.59;5082515;28;20056;-81
2023/03/06 08:54:03;;;;;;;6.55;3.00;;;;;;;2.45;100.00;100561.69;5072490;28;20052;-82
2023/03/06 08:56:32;;;;;;;4.32;2.35;;;;;;;2.40;100.00;100563.25;5048620;28;20485;-82
2023/03/06 08:59:02;;;;;;;3.75;2.40;;;;;;;2.35;100.00;100570.94;5045231;28;20063;-82
2023/03/06 09:01:33;;;;;;;5.57;2.88;;;;;;;2.29;100.00;100574.22;5073681;28;20055;-82
2023/03/06 09:04:03;;;;;;;;;;;;;;;2.25;100.00;100568.84;5057344;28;20098;-82
2023/03/06 09:06:33;;;;;;;2.58;2.38;;;;;;;2.20;100.00;100568.72;5070283;28;20239;-83
2023/03/06 09:09:00;;;;;;;3.00;2.50;;;;;;;2.19;100.00;100564.31;5036885;28;20055;-82
2023/03/06 09:11:28;;;;;;;2.72;2.25;;;;;;;2.21;100.00;100557.50;5040588;28;20059;-81
2023/03/06 09:13:56;;;;;;;4.45;2.40;;;;;;;2.26;100.00;100562.81;5052192;28;20049;-81
2023/03/06 09:16:24;;;;;;;2.85;2.50;;;;;;;2.32;100.00;100550.88;5051571;28;20033;-82
2023/03/06 09:18:52;;;;;;;3.67;2.50;;;;;;;2.39;100.00;100564.09;5065138;28;20045;-82
2023/03/06 09:21:23;;;;;;;;;;;;;;;2.44;100.00;100555.63;5058994;28;20055;-81
2023/03/06 09:23:53;;;;;;;3.63;2.60;;;;;;;2.54;100.00;100556.78;5072083;28;19925;-82
2023/03/06 09:26:21;;;;;;;3.50;3.20;;;;;;;2.63;100.00;100554.47;5055714;28;20547;-81
2023/03/06 09:29:01;;;;;;;7.45;3.17;;;;;;;2.70;100.00;100548.63;5022676;28;20588;-81
2023/03/06 09:31:30;;;;;;;2.95;2.70;;;;;;;2.77;100.00;100556.59;5063572;28;20056;-81
2023/03/06 09:33:58;;;;;;;3.55;2.55;;;;;;;2.84;100.00;100549.03;5055996;28;20049;-82
2023/03/06 09:36:26;;;;;;;4.35;2.50;;;;;;;2.88;100.00;100542.19;5047731;28;20049;-82
2023/03/06 09:38:56;;;;;;;2.88;2.67;;;;;;;2.97;100.00;100538.94;5055998;28;20040;-82
2023/03/06 09:41:32;;;;;;;2.88;2.50;;;;;;;3.03;100.00;100533.94;5066667;28;20044;-83
2023/03/06 09:44:04;;;;;;;4.18;2.50;;;;;;;3.08;100.00;100538.44;5086175;28;20051;-81
2023/03/06 09:46:40;;;;;;;4.45;2.50;;;;;;;3.11;100.00;100533.31;5016494;28;20037;-82
2023/03/06 09:49:55;;;;;;;9.68;2.90;;;;;;;3.23;100.00;100539.69;5066936;28;20063;-79
2023/03/06 09:52:28;;;;;;;3.35;2.40;;;;;;;3.31;100.00;100533.88;5046446;28;20076;-82
2023/03/06 09:55:04;;;;;;;14.95;7.82;;;;;;;3.41;100.00;100528.94;5048124;28;20520;-80
2023/03/06 09:57:35;;;;;;;7.95;3.03;;;;;;;3.48;100.00;100541.28;5046987;28;20059;-82
2023/03/06 10:00:10;;;;;;;2.85;1.90;;;;;;;3.53;100.00;100534.44;5051942;28;21076;-81
2023/03/06 10:02:41;;;;;;;3.55;1.95;;;;;;;3.59;100.00;100541.53;5061819;28;20037;-81
2023/03/06 10:05:34;;;;;;;4.13;1.98;;;;;;;3.67;100.00;100534.84;5095641;28;20052;-81
2023/03/06 10:08:18;;;;;;;3.38;2.70;;;;;;;3.76;100.00;100528.97;5074877;28;20055;-79
2023/03/06 10:10:53;;;;;;;2.83;2.03;;;;;;;3.85;100.00;100527.47;5072013;28;20053;-82
2023/03/06 10:13:30;;;;;;;2.85;1.90;;;;;;;3.93;100.00;100535.47;5071660;28;20979;-82
2023/03/06 10:16:12;;;;;;;2.17;1.92;;;;;;;4.04;100.00;100527.94;5082098;28;20095;-81
2023/03/06 10:18:39;;;;;;;4.38;1.67;;;;;;;4.09;100.00;100529.81;5072952;28;20045;-82
2023/03/06 10:21:42;;;;;;;3.42;2.28;;;;;;;4.20;100.00;100530.06;5065229;28;20048;-81
2023/03/06 10:24:20;;;;;;;2.15;1.60;;;;;;;4.30;100.00;100532.03;5039365;28;20064;-81
2023/03/06 10:26:56;;;;;;;3.08;1.30;;;;;;;4.41;100.00;100526.22;5076703;28;20044;-82
2023/03/06 10:29:45;;;;;;;5.68;1.58;;;;;;;4.50;100.00;100523.81;5070230;28;20355;-82
2023/03/06 10:32:36;;;;;;;2.67;1.30;;;;;;;4.55;100.00;100522.16;5022346;28;20043;-82
2023/03/06 10:35:20;;;;;;;8.05;1.77;;;;;;;4.62;100.00;100526.69;5060325;28;20470;-82
2023/03/06 10:37:48;;;;;;;7.95;1.88;;;;;;;4.71;100.00;100522.50;5034271;28;20047;-84
2023/03/06 10:40:22;;;;;;;2.65;1.10;;;;;;;4.79;100.00;100527.06;5049171;28;20059;-83
2023/03/06 10:42:53;;;;;;;2.53;1.23;;;;;;;4.88;100.00;100515.94;5076769;28;20048;-84
2023/03/06 10:45:52;;;;;;;2.03;1.25;;;;;;;4.95;100.00;100515.19;5088723;28;20061;-83
2023/03/06 10:48:26;;;;;;;4.70;2.65;;;;;;;5.04;100.00;100517.13;5044894;28;20059;-81
2023/03/06 10:51:14;;;;;;;3.30;1.15;;;;;;;5.06;100.00;100518.91;5058469;28;20044;-81
2023/03/06 10:54:00;;;;;;;5.00;2.30;;;;;;;5.18;100.00;100515.69;5072698;28;20041;-83
2023/03/06 10:56:34;;;;;;;2.67;0.70;;;;;;;5.31;100.00;100506.31;5075782;28;20045;-83
2023/03/06 10:59:13;;;;;;;2.38;0.90;;;;;;;5.38;100.00;100510.81;5065495;28;20052;-81
2023/03/06 11:01:44;;;;;;;2.92;0.73;;;;;;;5.38;100.00;100513.44;5079752;28;20045;-82
2023/03/06 11:04:21;;;;;;;3.13;0.60;;;;;;;5.34;100.00;100516.84;5044487;28;20053;-81
2023/03/06 11:07:18;;;;;;;2.55;0.70;;;;;;;5.33;100.00;100517.72;5076704;28;20055;-82
2023/03/06 11:09:55;;;;;;;1.58;0.70;;;;;;;5.42;100.00;100510.03;5039583;28;20048;-82
2023/03/06 11:12:32;;;;;;;3.47;0.90;;;;;;;5.43;100.00;100506.56;5075623;28;20044;-82
2023/03/06 11:15:05;;;;;;;1.48;0.80;;;;;;;5.40;100.00;100501.28;5072216;28;20048;-81
2023/03/06 11:17:36;;;;;;;1.45;0.70;;;;;;;5.42;100.00;100510.03;5066248;28;20048;-82
2023/03/06 11:20:13;;;;;;;3.15;0.85;;;;;;;5.53;100.00;100507.59;5048656;28;20047;-82
2023/03/06 11:22:45;;;;;;;1.27;0.75;;;;;;;5.62;100.00;100499.94;5063252;28;20048;-82
2023/03/06 11:25:17;;;;;;;3.13;0.75;;;;;;;5.70;100.00;100507.91;5076367;28;20083;-82
2023/03/06 11:28:02;;;;;;;1.35;0.68;;;;;;;5.71;100.00;100506.16;5065905;28;20063;-82
2023/03/06 11:30:37;;;;;;;1.27;1.08;;;;;;;5.71;100.00;100507.06;5041294;28;20048;-82
2023/03/06 11:33:27;;;;;;;3.17;0.73;;;;;;;5.66;100.00;100498.25;5023632;28;20044;-81
2023/03/06 11:36:01;;;;;;;0.82;0.70;;;;;;;5.72;100.00;100502.72;5071769;28;20816;-81
2023/03/06 11:38:42;;;;;;;2.30;0.68;;;;;;;5.75;100.00;100497.56;5066569;28;20091;-81
2023/03/06 11:41:32;;;;;;;4.03;0.90;;;;;;;5.85;100.00;100486.38;5058089;28;20056;-81
2023/03/06 11:44:07;;;;;;;6.53;1.17;;;;;;;5.96;100.00;100479.63;5068920;28;20032;-81